Terminal Aerodrome Forecast
Issued by NWS

Home | Current Version | Previous Version | Text Only | Print | Product List | Glossary On
Versions: 1 2 3 4 5 6 7 8 9 10 11 12 13 14
139
FTUS45 KRIW 202331
TAFCPR
TAF
KCPR 202331Z 2100/2124 27012G22KT P6SM VCTS SCT090CB BKN140
      TEMPO 2100/2104 27030G45KT -SHRA BKN090
     FM210400 22007KT P6SM FEW110 SCT200
     FM211800 30011KT P6SM SCT110=

USA.gov is the U.S. government's official web portal to all federal, state and local government web resources and services.